createdAt,value
2018-06-28T00:00:44.234Z,69.00
2018-06-28T00:03:16.047Z,68.80
2018-06-28T00:05:47.560Z,68.60
2018-06-28T00:08:19.154Z,69.10
2018-06-28T00:10:50.682Z,68.90
2018-06-28T00:13:23.186Z,69.00
2018-06-28T00:15:54.916Z,69.20
2018-06-28T00:18:26.526Z,69.40
2018-06-28T00:20:58.409Z,69.50
2018-06-28T00:23:30.169Z,69.80
2018-06-28T00:26:01.750Z,70.00
2018-06-28T00:28:33.427Z,70.00
2018-06-28T00:31:05.185Z,70.00
2018-06-28T00:33:36.861Z,70.20
2018-06-28T00:36:08.686Z,71.30
2018-06-28T00:38:40.273Z,70.60
2018-06-28T00:41:11.876Z,70.50
2018-06-28T00:43:43.528Z,70.10
2018-06-28T00:46:15.188Z,70.20
2018-06-28T00:48:46.937Z,70.40
2018-06-28T00:51:18.518Z,70.50
2018-06-28T00:53:50.248Z,70.60
2018-06-28T00:56:21.854Z,70.70
2018-06-28T00:58:53.549Z,70.60
2018-06-28T01:01:25.162Z,70.40
2018-06-28T01:03:56.933Z,70.30
2018-06-28T01:06:28.365Z,70.50
2018-06-28T01:09:00.132Z,70.70
2018-06-28T01:11:31.641Z,70.90
2018-06-28T01:14:03.454Z,70.90
2018-06-28T01:16:35.052Z,70.60
2018-06-28T01:19:07.418Z,70.30
2018-06-28T01:21:39.009Z,70.10
2018-06-28T01:24:10.827Z,69.70
2018-06-28T01:26:42.523Z,69.60
2018-06-28T01:29:14.202Z,69.40
2018-06-28T01:31:45.921Z,69.70
2018-06-28T01:34:17.625Z,70.00
2018-06-28T01:36:49.377Z,70.40
2018-06-28T01:39:23.085Z,70.80
2018-06-28T01:42:10.970Z,71.00
2018-06-28T01:44:42.609Z,71.00
2018-06-28T01:47:14.333Z,71.20
2018-06-28T01:49:45.905Z,71.40
2018-06-28T01:52:17.560Z,71.50
2018-06-28T01:54:49.122Z,71.80
2018-06-28T01:57:20.756Z,72.00
2018-06-28T01:59:52.337Z,72.10
2018-06-28T02:02:23.964Z,72.10
2018-06-28T02:04:55.517Z,72.20
2018-06-28T02:07:27.138Z,72.30
2018-06-28T02:09:58.737Z,72.50
2018-06-28T02:12:30.484Z,72.40
2018-06-28T02:15:02.042Z,72.50
2018-06-28T02:17:33.586Z,72.50
2018-06-28T02:20:05.478Z,73.10
2018-06-28T02:22:36.993Z,72.20
2018-06-28T02:25:08.773Z,72.30
2018-06-28T02:27:40.300Z,72.60
2018-06-28T02:30:12.053Z,72.60
2018-06-28T02:32:43.628Z,72.60
2018-06-28T02:35:15.595Z,72.50
2018-06-28T02:37:47.565Z,72.60
2018-06-28T02:40:19.242Z,72.60
2018-06-28T02:42:50.829Z,72.50
2018-06-28T02:45:22.534Z,72.40
2018-06-28T02:47:54.202Z,72.40
2018-06-28T02:50:25.747Z,72.50
2018-06-28T02:52:57.355Z,72.70
2018-06-28T02:55:28.972Z,72.80
2018-06-28T02:58:00.582Z,72.60
2018-06-28T03:00:32.177Z,72.90
2018-06-28T03:03:03.790Z,73.00
2018-06-28T03:05:35.384Z,73.20
2018-06-28T03:08:07.090Z,73.30
2018-06-28T03:10:38.689Z,73.20
2018-06-28T03:13:10.305Z,73.10
2018-06-28T03:15:42.071Z,72.70
2018-06-28T03:18:13.634Z,72.70
2018-06-28T03:20:45.322Z,73.00
2018-06-28T03:23:16.820Z,73.20
2018-06-28T03:25:48.525Z,73.90
2018-06-28T03:28:20.134Z,73.60
2018-06-28T03:30:51.916Z,73.80
2018-06-28T03:33:23.446Z,74.00
2018-06-28T03:35:55.267Z,74.00
2018-06-28T03:40:58.090Z,74.20
2018-06-28T03:43:29.696Z,74.30
2018-06-28T03:46:01.443Z,74.30
2018-06-28T03:48:32.975Z,74.30
2018-06-28T03:51:04.686Z,74.10
2018-06-28T03:53:36.337Z,74.10
2018-06-28T03:56:08.038Z,74.20
2018-06-28T03:58:39.660Z,74.10
2018-06-28T04:01:11.237Z,74.30
2018-06-28T04:03:42.939Z,74.20
2018-06-28T04:06:14.554Z,74.40
2018-06-28T04:08:46.295Z,74.40
2018-06-28T04:11:17.860Z,74.20
2018-06-28T04:13:49.441Z,74.20
2018-06-28T04:16:21.046Z,74.30
2018-06-28T04:18:52.646Z,74.60
2018-06-28T04:21:24.359Z,74.80
2018-06-28T04:23:55.865Z,74.80
2018-06-28T04:26:27.461Z,74.70
2018-06-28T04:28:59.146Z,74.40
2018-06-28T04:31:30.802Z,74.30
2018-06-28T04:34:02.431Z,74.30
2018-06-28T04:36:34.081Z,74.40
2018-06-28T04:39:08.526Z,74.30
2018-06-28T04:41:40.319Z,74.30
2018-06-28T04:44:15.447Z,74.90
2018-06-28T04:46:47.171Z,74.60
2018-06-28T04:49:18.707Z,74.30
2018-06-28T04:51:50.389Z,74.70
2018-06-28T04:54:22.034Z,74.50
2018-06-28T04:56:53.680Z,74.60
2018-06-28T04:59:25.434Z,75.30
2018-06-28T05:01:57.037Z,74.70
2018-06-28T05:04:28.774Z,74.70
2018-06-28T05:07:00.262Z,74.00
2018-06-28T05:09:31.970Z,73.70
2018-06-28T05:12:03.538Z,72.70
2018-06-28T05:14:35.138Z,72.20
2018-06-28T05:17:06.804Z,71.50
2018-06-28T05:19:38.459Z,71.50
2018-06-28T05:22:10.074Z,70.60
2018-06-28T05:24:41.590Z,70.40
2018-06-28T05:27:13.326Z,70.90
2018-06-28T05:29:45.003Z,70.50
2018-06-28T05:32:16.601Z,69.50
2018-06-28T05:34:48.254Z,69.70
2018-06-28T05:37:19.910Z,69.80
2018-06-28T05:39:51.836Z,69.80
2018-06-28T05:42:23.505Z,69.40
2018-06-28T05:44:55.026Z,69.00
2018-06-28T05:47:26.641Z,68.90
2018-06-28T05:49:58.216Z,69.00
2018-06-28T05:52:29.926Z,69.10
2018-06-28T05:55:01.462Z,69.00
2018-06-28T05:57:33.147Z,68.00
2018-06-28T06:00:04.768Z,68.10
2018-06-28T06:02:36.556Z,67.80
2018-06-28T06:05:08.102Z,68.00
2018-06-28T06:07:39.701Z,68.20
2018-06-28T06:10:11.569Z,68.00
2018-06-28T06:12:43.365Z,68.30
2018-06-28T06:15:14.996Z,67.30
2018-06-28T06:17:46.629Z,66.60
2018-06-28T06:20:18.380Z,66.30
2018-06-28T06:22:49.925Z,65.90
2018-06-28T06:25:21.567Z,65.70
2018-06-28T06:30:24.343Z,64.90
2018-06-28T06:32:55.944Z,64.80
2018-06-28T06:35:27.436Z,64.70
2018-06-28T06:37:59.159Z,64.80
2018-06-28T06:40:30.852Z,65.00
2018-06-28T06:43:02.479Z,65.70
2018-06-28T06:45:34.097Z,65.00
2018-06-28T06:48:05.782Z,64.70
2018-06-28T06:50:37.470Z,64.90
2018-06-28T06:53:09.182Z,64.00
2018-06-28T06:55:40.905Z,63.50
2018-06-28T06:58:12.474Z,63.00
2018-06-28T07:00:44.102Z,62.80
2018-06-28T07:03:15.851Z,62.60
2018-06-28T07:05:47.396Z,62.70
2018-06-28T07:08:19.107Z,62.50
2018-06-28T07:10:50.607Z,62.20
2018-06-28T07:13:22.316Z,61.40
2018-06-28T07:15:54.184Z,60.50
2018-06-28T07:18:25.839Z,60.90
2018-06-28T07:20:57.417Z,60.10
2018-06-28T07:23:28.960Z,60.40
2018-06-28T07:26:00.482Z,60.00
2018-06-28T07:28:33.036Z,60.00
2018-06-28T07:31:04.733Z,59.80
2018-06-28T07:33:36.285Z,59.00
2018-06-28T07:36:07.982Z,60.30
2018-06-28T07:38:39.712Z,59.60
2018-06-28T07:41:11.384Z,60.00
2018-06-28T07:46:14.061Z,60.10
2018-06-28T07:48:46.007Z,60.20
2018-06-28T07:51:17.584Z,60.10
2018-06-28T07:53:49.089Z,60.40
2018-06-28T07:56:20.722Z,60.00
2018-06-28T07:58:52.441Z,60.10
2018-06-28T08:01:24.129Z,60.10
2018-06-28T08:03:55.715Z,60.10
2018-06-28T08:06:27.238Z,60.10
2018-06-28T08:08:58.916Z,59.90
2018-06-28T08:11:30.621Z,59.90
2018-06-28T08:14:02.167Z,59.80
2018-06-28T08:16:33.993Z,59.80
2018-06-28T08:19:05.559Z,59.10
2018-06-28T08:21:37.311Z,59.40
2018-06-28T08:24:08.961Z,59.90
2018-06-28T08:26:40.593Z,59.90
2018-06-28T08:29:12.858Z,58.50
2018-06-28T08:31:44.493Z,58.60
2018-06-28T08:34:16.042Z,56.80
2018-06-28T08:36:47.716Z,57.00
2018-06-28T08:39:19.530Z,57.10
2018-06-28T08:41:51.146Z,57.80
2018-06-28T08:44:22.936Z,58.00
2018-06-28T08:46:54.525Z,58.10
2018-06-28T08:49:26.064Z,57.90
2018-06-28T08:51:57.641Z,57.90
2018-06-28T08:54:29.277Z,57.70
2018-06-28T08:57:00.952Z,57.70
2018-06-28T08:59:32.457Z,57.00
2018-06-28T09:02:04.169Z,56.50
2018-06-28T09:04:35.818Z,55.90
2018-06-28T09:07:07.486Z,56.20
2018-06-28T09:09:38.978Z,55.00
2018-06-28T09:12:10.607Z,54.80
2018-06-28T09:14:42.251Z,55.10
2018-06-28T09:19:44.986Z,54.80
2018-06-28T09:22:16.627Z,55.60
2018-06-28T09:24:48.313Z,55.70
2018-06-28T09:27:19.813Z,55.60
2018-06-28T09:29:51.459Z,55.70
2018-06-28T09:32:23.076Z,55.40
2018-06-28T09:34:54.741Z,55.30
2018-06-28T09:37:26.485Z,55.60
2018-06-28T09:39:58.056Z,55.80
2018-06-28T09:42:29.744Z,55.80
2018-06-28T09:45:01.244Z,55.30
2018-06-28T09:47:33.005Z,55.90
2018-06-28T09:50:04.634Z,56.30
2018-06-28T09:52:36.197Z,55.90
2018-06-28T09:55:07.885Z,55.60
2018-06-28T09:57:39.509Z,55.90
2018-06-28T10:00:10.850Z,55.60
2018-06-28T10:02:42.588Z,55.60
2018-06-28T10:05:14.250Z,55.30
2018-06-28T10:07:45.862Z,55.40
2018-06-28T10:10:17.513Z,55.60
2018-06-28T10:12:49.313Z,55.10
2018-06-28T10:15:20.929Z,55.00
2018-06-28T10:17:52.686Z,55.30
2018-06-28T10:20:24.274Z,55.60
2018-06-28T10:22:56.042Z,55.30
2018-06-28T10:25:27.707Z,55.50
2018-06-28T10:27:59.272Z,54.70
2018-06-28T10:30:30.858Z,54.60
2018-06-28T10:33:02.508Z,54.40
2018-06-28T10:35:34.177Z,54.10
2018-06-28T10:38:05.809Z,54.10
2018-06-28T10:40:37.494Z,54.80
2018-06-28T10:43:09.498Z,55.00
2018-06-28T10:45:41.154Z,55.20
2018-06-28T10:48:12.809Z,54.60
2018-06-28T10:50:44.330Z,54.90
2018-06-28T10:53:15.954Z,55.00
2018-06-28T10:55:47.690Z,54.40
2018-06-28T10:58:19.253Z,54.30
2018-06-28T11:00:50.846Z,54.10
2018-06-28T11:03:22.482Z,54.20
2018-06-28T11:05:54.162Z,53.60
2018-06-28T11:08:25.921Z,53.80
2018-06-28T11:10:57.497Z,53.90
2018-06-28T11:13:29.069Z,53.50
2018-06-28T11:16:00.614Z,53.40
2018-06-28T11:18:32.217Z,53.70
2018-06-28T11:21:03.891Z,53.10
2018-06-28T11:23:35.654Z,52.90
2018-06-28T11:26:07.236Z,53.20
2018-06-28T11:28:38.905Z,52.50
2018-06-28T11:31:10.529Z,52.30
2018-06-28T11:33:42.144Z,52.40
2018-06-28T11:36:13.836Z,52.30
2018-06-28T11:38:45.421Z,52.40
2018-06-28T11:41:17.245Z,51.50
2018-06-28T11:43:48.828Z,51.40
2018-06-28T11:46:20.380Z,51.80
2018-06-28T11:48:52.117Z,51.80
2018-06-28T11:51:23.698Z,52.00
2018-06-28T11:53:55.369Z,52.00
2018-06-28T11:56:26.953Z,51.90
2018-06-28T11:58:58.682Z,52.40
2018-06-28T12:01:30.280Z,51.60
2018-06-28T12:04:01.996Z,51.30
2018-06-28T12:06:33.613Z,51.60
2018-06-28T12:09:07.146Z,52.70
2018-06-28T12:11:38.683Z,52.20
2018-06-28T12:14:10.704Z,51.50
2018-06-28T12:16:42.273Z,51.30
2018-06-28T12:19:13.909Z,51.10
2018-06-28T12:21:45.545Z,50.20
2018-06-28T12:26:48.080Z,50.60
2018-06-28T12:29:19.708Z,50.90
2018-06-28T12:31:51.357Z,50.90
2018-06-28T12:34:22.930Z,50.10
2018-06-28T12:36:54.759Z,49.90
2018-06-28T12:39:26.318Z,50.30
2018-06-28T12:41:57.921Z,51.30
2018-06-28T12:44:29.556Z,50.70
2018-06-28T12:47:44.333Z,51.10
2018-06-28T12:50:16.013Z,51.50
2018-06-28T12:52:55.481Z,52.10
2018-06-28T12:55:27.790Z,52.10
2018-06-28T12:57:59.527Z,52.60
2018-06-28T13:00:31.092Z,52.90
2018-06-28T13:03:02.584Z,52.40
2018-06-28T13:05:34.286Z,51.70
2018-06-28T13:08:05.794Z,51.80
2018-06-28T13:10:37.503Z,52.30
2018-06-28T13:15:40.359Z,51.80
2018-06-28T13:18:12.049Z,52.20
2018-06-28T13:20:43.621Z,52.70
2018-06-28T13:23:15.113Z,53.20
2018-06-28T13:25:46.829Z,53.90
2018-06-28T13:28:18.542Z,53.90
2018-06-28T13:30:50.164Z,54.00
2018-06-28T13:33:21.869Z,54.70
2018-06-28T13:35:53.474Z,55.20
2018-06-28T13:38:25.365Z,55.20
2018-06-28T13:40:57.161Z,55.70
2018-06-28T13:43:28.669Z,56.20
2018-06-28T13:46:00.480Z,57.10
2018-06-28T13:48:32.337Z,58.60
2018-06-28T13:51:04.065Z,59.50
2018-06-28T13:53:35.705Z,59.80
2018-06-28T13:56:07.321Z,60.80
2018-06-28T13:58:39.043Z,60.40
2018-06-28T14:01:10.782Z,61.00
2018-06-28T14:03:42.352Z,61.70
2018-06-28T14:06:14.033Z,61.90
2018-06-28T14:08:45.583Z,61.90
2018-06-28T14:11:17.250Z,62.50
2018-06-28T14:13:48.900Z,63.30
2018-06-28T14:16:20.591Z,64.70
2018-06-28T14:18:52.332Z,64.50
2018-06-28T14:21:23.909Z,64.90
2018-06-28T14:23:55.628Z,65.70
2018-06-28T14:26:27.205Z,66.20
2018-06-28T14:28:58.836Z,66.70
2018-06-28T14:31:30.393Z,67.20
2018-06-28T14:34:02.010Z,67.70
2018-06-28T14:36:33.719Z,68.00
2018-06-28T14:39:07.165Z,68.20
2018-06-28T14:41:38.927Z,68.40
2018-06-28T14:44:10.642Z,68.50
2018-06-28T14:46:42.203Z,69.60
2018-06-28T14:49:13.948Z,70.00
2018-06-28T14:51:45.517Z,69.20
2018-06-28T14:54:17.224Z,70.90
2018-06-28T14:56:48.909Z,70.40
2018-06-28T14:59:20.520Z,70.20
2018-06-28T15:01:52.273Z,70.30
2018-06-28T15:04:23.929Z,70.70
2018-06-28T15:06:55.540Z,69.70
2018-06-28T15:09:27.052Z,69.70
2018-06-28T15:11:58.637Z,69.40
2018-06-28T15:14:30.143Z,69.20
2018-06-28T15:17:01.949Z,69.40
2018-06-28T15:19:33.568Z,70.00
2018-06-28T15:22:05.193Z,70.90
2018-06-28T15:24:36.818Z,71.00
2018-06-28T15:27:08.577Z,71.20
2018-06-28T15:29:40.194Z,72.30
2018-06-28T15:32:11.954Z,72.80
2018-06-28T15:34:43.505Z,73.40
2018-06-28T15:37:15.213Z,72.10
2018-06-28T15:39:46.710Z,72.00
2018-06-28T15:42:18.345Z,72.80
2018-06-28T15:44:49.917Z,73.00
2018-06-28T15:47:21.549Z,74.40
2018-06-28T15:49:53.405Z,74.20
2018-06-28T15:52:25.049Z,76.10
2018-06-28T15:54:56.706Z,72.60
2018-06-28T15:57:28.350Z,70.80
2018-06-28T16:00:00.075Z,71.40
2018-06-28T16:02:31.967Z,71.00
2018-06-28T16:05:03.508Z,70.60
2018-06-28T16:07:35.213Z,71.30
2018-06-28T16:10:06.725Z,71.40
2018-06-28T16:12:38.398Z,71.50
2018-06-28T16:15:10.017Z,71.30
2018-06-28T16:17:41.972Z,72.10
2018-06-28T16:20:13.962Z,71.40
2018-06-28T16:22:45.647Z,71.30
2018-06-28T16:27:48.329Z,70.70
2018-06-28T16:30:19.989Z,70.80
2018-06-28T16:32:51.652Z,71.60
2018-06-28T16:35:23.265Z,72.30
2018-06-28T16:37:55.062Z,72.50
2018-06-28T16:40:26.595Z,73.00
2018-06-28T16:42:58.160Z,73.40
2018-06-28T16:45:29.713Z,73.50
2018-06-28T16:48:01.344Z,73.80
2018-06-28T16:50:33.020Z,73.60
2018-06-28T16:53:04.774Z,73.50
2018-06-28T16:55:36.308Z,73.60
2018-06-28T16:58:08.556Z,74.00
2018-06-28T17:00:40.840Z,73.20
2018-06-28T17:03:17.158Z,73.50
2018-06-28T17:05:48.926Z,73.70
2018-06-28T17:08:20.470Z,73.50
2018-06-28T17:10:52.140Z,73.40
2018-06-28T17:13:23.642Z,74.00
2018-06-28T17:15:55.374Z,73.50
2018-06-28T17:18:27.066Z,74.00
2018-06-28T17:20:58.684Z,73.90
2018-06-28T17:23:30.366Z,73.90
2018-06-28T17:26:01.999Z,74.10
2018-06-28T17:28:33.678Z,74.30
2018-06-28T17:31:05.372Z,74.20
2018-06-28T17:33:36.985Z,74.10
2018-06-28T17:36:08.742Z,74.00
2018-06-28T17:38:40.443Z,74.30
2018-06-28T17:41:12.210Z,74.10
2018-06-28T17:43:43.719Z,74.00
2018-06-28T17:46:15.421Z,73.80
2018-06-28T17:48:46.953Z,73.70
2018-06-28T17:51:18.666Z,73.70
2018-06-28T17:53:50.473Z,73.40
2018-06-28T17:56:22.095Z,73.30
2018-06-28T17:58:53.721Z,73.10
2018-06-28T18:01:25.417Z,73.20
2018-06-28T18:03:57.106Z,72.90
2018-06-28T18:06:28.774Z,73.20
2018-06-28T18:11:31.466Z,73.30
2018-06-28T18:14:03.086Z,73.60
2018-06-28T18:16:34.901Z,73.80
2018-06-28T18:19:06.542Z,74.30
2018-06-28T18:21:38.209Z,74.10
2018-06-28T18:24:09.821Z,74.20
2018-06-28T18:26:41.516Z,74.40
2018-06-28T18:29:13.277Z,74.70
2018-06-28T18:31:44.859Z,74.70
2018-06-28T18:34:16.775Z,75.00
2018-06-28T18:36:48.406Z,74.70
2018-06-28T18:39:20.049Z,74.70
2018-06-28T18:41:51.652Z,75.50
2018-06-28T18:44:23.197Z,75.90
2018-06-28T18:46:54.865Z,76.60
2018-06-28T18:49:26.409Z,76.60
2018-06-28T18:51:57.973Z,76.50
2018-06-28T18:54:29.521Z,76.40
2018-06-28T18:57:01.249Z,76.10
2018-06-28T18:59:32.966Z,76.30
2018-06-28T19:02:04.696Z,76.40
2018-06-28T19:04:36.356Z,76.50
2018-06-28T19:07:08.353Z,76.50
2018-06-28T19:09:44.955Z,76.40
2018-06-28T19:12:16.663Z,76.30
2018-06-28T19:14:53.011Z,76.00
2018-06-28T19:17:24.789Z,76.00
2018-06-28T19:19:56.280Z,75.60
2018-06-28T19:22:32.726Z,75.10
2018-06-28T19:25:04.316Z,74.70
2018-06-28T19:27:35.936Z,74.10
2018-06-28T19:30:12.714Z,74.00
2018-06-28T19:32:44.362Z,73.30
2018-06-28T19:35:15.910Z,73.20
2018-06-28T19:37:49.454Z,73.00
2018-06-28T19:40:26.316Z,73.20
2018-06-28T19:43:01.670Z,73.10
2018-06-28T19:45:33.378Z,73.50
2018-06-28T19:48:05.033Z,73.60
2018-06-28T19:50:41.546Z,73.90
2018-06-28T19:53:14.900Z,73.80
2018-06-28T19:55:46.594Z,73.90
2018-06-28T19:58:18.318Z,73.40
2018-06-28T20:00:55.039Z,73.90
2018-06-28T20:03:31.646Z,74.70
2018-06-28T20:06:03.298Z,74.40
2018-06-28T20:08:34.907Z,74.80
2018-06-28T20:11:06.524Z,75.20
2018-06-28T20:13:42.975Z,75.10
2018-06-28T20:16:19.573Z,75.80
2018-06-28T20:18:56.017Z,75.50
2018-06-28T20:21:27.633Z,75.50
2018-06-28T20:23:59.247Z,76.30
2018-06-28T20:26:35.930Z,76.20
2018-06-28T20:31:48.453Z,76.70
2018-06-28T20:34:20.197Z,76.40
2018-06-28T20:36:51.799Z,76.70
2018-06-28T20:39:23.529Z,76.60
2018-06-28T20:41:55.413Z,76.60
2018-06-28T20:46:58.292Z,76.50
2018-06-28T20:49:30.012Z,76.50
2018-06-28T20:52:01.757Z,75.70
2018-06-28T20:54:33.409Z,75.90
2018-06-28T20:57:05.334Z,75.50
2018-06-28T20:59:36.994Z,75.30
2018-06-28T21:02:08.846Z,74.90
2018-06-28T21:04:40.429Z,74.80
2018-06-28T21:07:12.066Z,75.10
2018-06-28T21:09:43.635Z,74.50
2018-06-28T21:12:15.240Z,74.60
2018-06-28T21:14:46.926Z,74.40
2018-06-28T21:17:18.461Z,74.30
2018-06-28T21:19:50.371Z,74.20
2018-06-28T21:22:22.496Z,74.10
2018-06-28T21:24:54.090Z,74.00
2018-06-28T21:27:25.569Z,73.50
2018-06-28T21:29:57.207Z,73.70
2018-06-28T21:32:28.946Z,73.90
2018-06-28T21:37:31.727Z,74.20
2018-06-28T21:40:03.402Z,74.30
2018-06-28T21:42:34.887Z,74.70
2018-06-28T21:45:06.813Z,74.30
2018-06-28T21:47:38.412Z,74.50
2018-06-28T21:50:10.125Z,75.00
2018-06-28T21:55:12.784Z,76.00
2018-06-28T21:57:44.486Z,75.90
2018-06-28T22:00:31.730Z,76.20
2018-06-28T22:03:07.434Z,76.30
2018-06-28T22:05:39.118Z,75.60
2018-06-28T22:08:10.763Z,75.90
2018-06-28T22:10:42.552Z,75.60
2018-06-28T22:13:14.040Z,75.20
2018-06-28T22:15:45.722Z,74.90
2018-06-28T22:18:17.330Z,75.30
2018-06-28T22:20:48.960Z,75.80
2018-06-28T22:23:20.543Z,76.00
2018-06-28T22:25:52.138Z,75.70
2018-06-28T22:28:23.753Z,76.00
2018-06-28T22:30:55.349Z,76.00
2018-06-28T22:33:26.974Z,75.90
2018-06-28T22:35:58.729Z,76.30
2018-06-28T22:38:30.309Z,76.40
2018-06-28T22:41:01.982Z,76.70
2018-06-28T22:43:33.484Z,76.40
2018-06-28T22:46:05.193Z,76.30
2018-06-28T22:48:36.689Z,76.40
2018-06-28T22:51:08.413Z,77.30
2018-06-28T22:53:39.931Z,76.60
2018-06-28T22:56:11.541Z,76.80
2018-06-28T22:58:43.283Z,76.60
2018-06-28T23:01:14.853Z,76.40
2018-06-28T23:03:46.581Z,76.90
2018-06-28T23:06:18.339Z,77.20
2018-06-28T23:08:49.875Z,77.40
2018-06-28T23:11:21.614Z,77.40
2018-06-28T23:13:53.186Z,77.30
2018-06-28T23:16:24.825Z,77.20
2018-06-28T23:18:56.409Z,77.30
2018-06-28T23:21:28.123Z,77.10
2018-06-28T23:23:59.834Z,77.10
2018-06-28T23:26:31.489Z,77.20
2018-06-28T23:29:03.156Z,76.90
2018-06-28T23:31:34.728Z,77.50
2018-06-28T23:34:06.341Z,77.20
2018-06-28T23:36:37.972Z,77.20
2018-06-28T23:39:11.925Z,76.70
2018-06-28T23:41:43.592Z,76.70
2018-06-28T23:44:15.400Z,76.80
2018-06-28T23:46:47.301Z,76.60
2018-06-28T23:49:18.854Z,76.10
2018-06-28T23:51:50.418Z,75.90
2018-06-28T23:54:22.025Z,75.70
2018-06-28T23:56:53.610Z,75.70
2018-06-28T23:59:25.160Z,75.80
